Time,TemperatureF,DewpointF,PressureIn,WindDirection,WindDirectionDegrees,WindSpeedMPH,WindSpeedGustMPH,Humidity,HourlyPrecipIn,Conditions,Clouds,dailyrainin,SoftwareType,DateUTC
2013-08-10 00:00:00,77.2,54.8,29.78,WSW,248,11.0,21.0,46,0.00,,CLR,0.00,VWS V14.01,2013-08-10 07:00:00,
2013-08-10 00:30:00,75.5,56.1,29.79,WSW,248,6.0,17.0,51,0.00,,CLR,0.00,VWS V14.01,2013-08-10 07:30:00,
2013-08-10 01:00:00,74.9,55.6,29.80,SW,225,6.0,12.0,51,0.00,,CLR,0.00,VWS V14.01,2013-08-10 08:00:00,
2013-08-10 01:30:00,74.1,58.4,29.81,SSW,202,6.0,10.0,58,0.00,,CLR,0.00,VWS V14.01,2013-08-10 08:30:00,
2013-08-10 02:00:00,72.5,53.4,29.82,SSE,158,10.0,16.0,51,0.00,,CLR,0.00,VWS V14.01,2013-08-10 09:00:00,
2013-08-10 02:30:00,74.9,56.6,29.81,South,180,9.0,14.0,53,0.00,,CLR,0.00,VWS V14.01,2013-08-10 09:30:00,
2013-08-10 03:00:00,74.2,59.4,29.81,South,180,6.0,12.0,60,0.00,,CLR,0.00,VWS V14.01,2013-08-10 10:00:00,
2013-08-10 03:30:00,69.4,58.0,29.83,SE,135,5.0,11.0,67,0.00,,CLR,0.00,VWS V14.01,2013-08-10 10:30:00,
2013-08-10 04:00:00,65.7,55.7,29.84,ESE,112,8.0,11.0,70,0.00,,CLR,0.00,VWS V14.01,2013-08-10 11:00:00,
2013-08-10 04:30:00,64.1,56.8,29.86,ENE,68,6.0,9.0,77,0.00,,CLR,0.00,VWS V14.01,2013-08-10 11:30:00,
2013-08-10 05:00:00,63.4,56.4,29.90,East,90,9.0,13.0,78,0.00,,CLR,0.00,VWS V14.01,2013-08-10 12:00:00,
2013-08-10 05:30:00,64.1,54.9,29.90,ENE,68,10.0,17.0,72,0.00,,CLR,0.00,VWS V14.01,2013-08-10 12:30:00,
2013-08-10 06:00:00,64.8,54.8,29.90,East,90,10.0,16.0,70,0.00,,CLR,0.00,VWS V14.01,2013-08-10 13:00:00,
2013-08-10 06:30:00,65.2,55.6,29.91,ESE,112,8.0,16.0,71,0.00,,CLR,0.00,VWS V14.01,2013-08-10 13:30:00,
2013-08-10 07:00:00,64.5,55.7,29.91,SE,135,6.0,10.0,73,0.00,,CLR,0.00,VWS V14.01,2013-08-10 14:00:00,
2013-08-10 07:30:00,65.3,56.0,29.91,SE,135,5.0,9.0,72,0.00,,CLR,0.00,VWS V14.01,2013-08-10 14:30:00,
2013-08-10 08:00:00,70.3,55.3,29.92,SSE,158,2.0,7.0,59,0.00,,CLR,0.00,VWS V14.01,2013-08-10 15:00:00,
2013-08-10 08:30:00,74.2,57.0,29.93,SSW,202,4.0,8.0,55,0.00,,CLR,0.00,VWS V14.01,2013-08-10 15:30:00,
2013-08-10 09:00:00,75.5,57.2,29.92,WSW,248,4.0,9.0,53,0.00,,CLR,0.00,VWS V14.01,2013-08-10 16:00:00,
2013-08-10 09:30:00,76.5,56.5,29.92,West,270,3.0,7.0,50,0.00,,CLR,0.00,VWS V14.01,2013-08-10 16:30:00,
2013-08-10 10:00:00,78.8,56.9,29.92,West,270,2.0,5.0,47,0.00,,CLR,0.00,VWS V14.01,2013-08-10 17:00:00,
2013-08-10 10:30:00,79.7,57.1,29.93,West,270,3.0,8.0,46,0.00,,CLR,0.00,VWS V14.01,2013-08-10 17:30:00,
2013-08-10 11:00:00,80.2,57.0,29.94,North,0,5.0,10.0,45,0.00,,CLR,0.00,VWS V14.01,2013-08-10 18:00:00,
2013-08-10 11:30:00,81.0,53.7,29.93,NNE,22,4.0,9.0,39,0.00,,CLR,0.00,VWS V14.01,2013-08-10 18:30:00,
2013-08-10 12:00:00,83.7,53.9,29.93,NNE,22,3.0,6.0,36,0.00,,CLR,0.00,VWS V14.01,2013-08-10 19:00:00,
2013-08-10 12:30:00,84.9,55.8,29.93,NE,45,2.0,8.0,37,0.00,,CLR,0.00,VWS V14.01,2013-08-10 19:30:00,
2013-08-10 13:00:00,85.2,54.5,29.92,NE,45,3.0,6.0,35,0.00,,CLR,0.00,VWS V14.01,2013-08-10 20:00:00,
2013-08-10 13:30:00,87.1,53.7,29.91,East,90,2.0,6.0,32,0.00,,CLR,0.00,VWS V14.01,2013-08-10 20:30:00,
2013-08-10 14:00:00,88.5,55.8,29.90,ESE,112,2.0,6.0,33,0.00,,CLR,0.00,VWS V14.01,2013-08-10 21:00:00,
2013-08-10 14:30:00,88.7,53.3,29.89,ESE,112,2.0,6.0,30,0.00,,CLR,0.00,VWS V14.01,2013-08-10 21:30:00,
2013-08-10 15:00:00,90.3,52.8,29.88,ESE,112,2.0,8.0,28,0.00,,CLR,0.00,VWS V14.01,2013-08-10 22:00:00,
2013-08-10 15:30:00,89.8,51.4,29.86,SSW,202,4.0,9.0,27,0.00,,CLR,0.00,VWS V14.01,2013-08-10 22:30:00,
2013-08-10 16:00:00,90.0,50.5,29.85,SSW,202,4.0,8.0,26,0.00,,CLR,0.00,VWS V14.01,2013-08-10 23:00:00,
2013-08-10 16:30:00,90.1,52.6,29.84,SW,225,5.0,10.0,28,0.00,,CLR,0.00,VWS V14.01,2013-08-10 23:30:00,
2013-08-10 17:00:00,90.1,50.6,29.83,SW,225,6.0,11.0,26,0.00,,CLR,0.00,VWS V14.01,2013-08-11 00:00:00,
2013-08-10 17:30:00,89.3,52.9,29.82,SW,225,6.0,10.0,29,0.00,,CLR,0.00,VWS V14.01,2013-08-11 00:30:00,
2013-08-10 18:00:00,87.7,54.2,29.82,SW,225,4.0,9.0,32,0.00,,CLR,0.00,VWS V14.01,2013-08-11 01:00:00,
2013-08-10 18:30:00,86.8,56.7,29.81,SW,225,5.0,8.0,36,0.00,,CLR,0.00,VWS V14.01,2013-08-11 01:30:00,
2013-08-10 19:00:00,85.7,55.7,29.82,SW,225,5.0,10.0,36,0.00,,CLR,0.00,VWS V14.01,2013-08-11 02:00:00,
2013-08-10 19:30:00,85.2,53.7,29.82,SW,225,4.0,9.0,34,0.00,,CLR,0.00,VWS V14.01,2013-08-11 02:30:00,
2013-08-10 20:00:00,84.6,53.2,29.82,SW,225,4.0,7.0,34,0.00,,CLR,0.00,VWS V14.01,2013-08-11 03:00:00,
2013-08-10 20:30:00,83.7,53.9,29.82,SW,225,4.0,7.0,36,0.00,,CLR,0.00,VWS V14.01,2013-08-11 03:30:00,
2013-08-10 21:00:00,82.6,55.9,29.81,SW,225,3.0,6.0,40,0.00,,CLR,0.00,VWS V14.01,2013-08-11 04:00:00,
2013-08-10 21:30:00,80.4,65.3,29.87,SW,225,9.0,33.0,60,0.00,,CLR,0.00,VWS V14.01,2013-08-11 04:30:00,
2013-08-10 22:00:00,68.0,66.8,29.90,South,180,18.0,37.0,96,0.34,,CLR,0.34,VWS V14.01,2013-08-11 05:00:00,
2013-08-10 22:30:00,64.9,64.0,29.90,ESE,112,5.0,13.0,97,0.39,,CLR,0.39,VWS V14.01,2013-08-11 05:30:00,
2013-08-10 23:00:00,66.5,65.9,29.88,NNW,338,7.0,17.0,98,0.39,,CLR,0.39,VWS V14.01,2013-08-11 06:00:00,
2013-08-10 23:30:00,66.9,66.3,29.88,WNW,292,8.0,18.0,98,0.05,,CLR,0.39,VWS V14.01,2013-08-11 06:30:00,